Time;durP1;ratioP1;P1;durP2;ratioP2;P2;SDS_P1;SDS_P2;PMS_P1;PMS_P2;Temp;Humidity;BMP_temperature;BMP_pressure;BME280_temperature;BME280_humidity;BME280_pressure;Samples;Min_cycle;Max_cycle;Signal;HPM_P1;HPM_P2
2022/07/28 00:05:10;;;;;;;7.15;1.95;;;14.80;24.80;;;;;;10415406;28;20205;-79
2022/07/28 00:10:31;;;;;;;5.90;1.63;;;14.70;40.80;;;;;;10424023;28;20500;-80
2022/07/28 00:15:52;;;;;;;5.30;1.55;;;14.60;66.50;;;;;;10437865;28;20262;-81
2022/07/28 00:21:14;;;;;;;3.50;1.30;;;14.70;95.70;;;;;;10465814;28;20571;-81
2022/07/28 00:26:36;;;;;;;4.75;1.63;;;14.70;94.00;;;;;;10410817;28;20206;-80
2022/07/28 00:31:58;;;;;;;4.85;1.60;;;14.80;94.80;;;;;;10413045;28;20218;-81
2022/07/28 00:37:19;;;;;;;4.72;1.35;;;14.80;91.00;;;;;;10382191;28;20201;-81
2022/07/28 00:42:40;;;;;;;14.57;4.00;;;14.90;93.30;;;;;;10417019;28;20281;-82
2022/07/28 00:48:02;;;;;;;3.65;1.85;;;14.90;98.10;;;;;;10436855;28;20273;-80
2022/07/28 00:53:23;;;;;;;3.45;1.40;;;14.90;98.90;;;;;;10453004;28;20206;-79
2022/07/28 00:58:46;;;;;;;3.85;1.23;;;14.90;99.90;;;;;;10454912;28;20509;-80
2022/07/28 01:04:07;;;;;;;2.55;0.90;;;14.90;99.90;;;;;;10449951;28;20239;-79
2022/07/28 01:09:43;;;;;;;4.43;1.25;;;14.90;99.90;;;;;;10436194;28;20206;-79
2022/07/28 01:15:24;;;;;;;3.50;1.40;;;14.90;99.90;;;;;;10421683;28;20244;-79
2022/07/28 01:20:58;;;;;;;7.15;1.27;;;15.00;99.90;;;;;;10454609;28;20237;-79
2022/07/28 01:26:25;;;;;;;2.50;1.35;;;15.00;99.90;;;;;;10418365;28;20200;-78
2022/07/28 01:32:12;;;;;;;2.45;1.23;;;15.10;99.90;;;;;;10463769;28;20492;-79
2022/07/28 01:37:40;;;;;;;2.38;1.30;;;15.00;99.90;;;;;;10449130;28;20207;-79
2022/07/28 01:43:06;;;;;;;2.25;1.15;;;15.00;99.90;;;;;;10449221;28;20233;-79
2022/07/28 01:48:30;;;;;;;3.85;1.50;;;14.90;99.90;;;;;;10435096;28;20204;-80
2022/07/28 01:53:53;;;;;;;4.75;1.55;;;14.90;99.90;;;;;;10396062;28;20407;-79
2022/07/28 01:59:15;;;;;;;3.60;1.30;;;14.90;99.90;;;;;;10487920;28;20192;-79
2022/07/28 02:04:39;;;;;;;2.30;1.20;;;14.90;99.90;;;;;;10455429;28;20454;-81
2022/07/28 02:10:02;;;;;;;3.53;1.25;;;15.00;99.90;;;;;;10410437;28;20285;-79
2022/07/28 02:15:26;;;;;;;2.28;1.15;;;15.00;99.90;;;;;;10426102;28;20245;-79
2022/07/28 02:20:50;;;;;;;2.05;1.35;;;15.00;99.90;;;;;;10434005;28;20277;-79
2022/07/28 02:26:13;;;;;;;3.00;1.50;;;15.10;99.90;;;;;;10434605;28;20199;-79
2022/07/28 02:31:50;;;;;;;2.97;1.90;;;15.10;99.90;;;;;;10442183;28;20403;-79
2022/07/28 02:37:14;;;;;;;1.60;1.30;;;15.10;99.90;;;;;;10444281;28;20396;-80
2022/07/28 02:42:38;;;;;;;3.55;1.55;;;15.20;99.90;;;;;;10441571;28;20218;-81
2022/07/28 02:48:06;;;;;;;4.65;1.67;;;15.20;99.90;;;;;;10457763;28;20404;-79
2022/07/28 02:53:29;;;;;;;2.45;1.40;;;15.20;99.90;;;;;;10411109;28;20206;-79
2022/07/28 02:58:53;;;;;;;2.38;1.23;;;15.20;99.90;;;;;;10491874;28;20203;-79
2022/07/28 03:04:15;;;;;;;1.98;1.35;;;15.30;99.90;;;;;;10474304;28;20223;-79
2022/07/28 03:09:43;;;;;;;3.05;1.45;;;15.30;99.90;;;;;;10440539;28;20198;-79
2022/07/28 03:15:04;;;;;;;2.78;1.50;;;15.30;99.90;;;;;;10440867;28;20261;-80
2022/07/28 03:20:26;;;;;;;3.00;1.35;;;15.30;99.90;;;;;;10438374;28;20537;-78
2022/07/28 03:25:50;;;;;;;5.93;1.90;;;15.30;99.90;;;;;;10439949;28;20202;-79
2022/07/28 03:31:14;;;;;;;4.65;1.95;;;15.30;99.90;;;;;;10405911;28;20237;-79
2022/07/28 03:36:41;;;;;;;5.63;1.92;;;15.30;99.90;;;;;;10398513;28;20200;-79
2022/07/28 03:42:03;;;;;;;6.15;1.77;;;15.30;99.90;;;;;;10399461;28;20260;-79
2022/07/28 03:47:25;;;;;;;3.65;1.38;;;15.30;99.90;;;;;;10438959;28;20214;-79
2022/07/28 03:52:46;;;;;;;3.15;1.27;;;15.30;99.90;;;;;;10423774;28;20199;-81
2022/07/28 03:58:07;;;;;;;3.83;1.48;;;15.40;99.90;;;;;;10469517;28;20209;-81
2022/07/28 04:03:29;;;;;;;4.30;1.60;;;15.40;99.90;;;;;;10463275;28;20234;-80
2022/07/28 04:08:51;;;;;;;5.47;1.70;;;15.40;99.90;;;;;;10399794;28;20217;-80
2022/07/28 04:14:12;;;;;;;4.07;1.88;;;15.40;99.90;;;;;;10420061;28;20234;-81
2022/07/28 04:19:36;;;;;;;3.70;1.55;;;15.40;99.90;;;;;;10445324;28;20279;-79
2022/07/28 04:24:58;;;;;;;5.13;1.83;;;15.40;99.90;;;;;;10425135;28;20202;-81
2022/07/28 04:30:23;;;;;;;7.22;1.85;;;15.40;99.90;;;;;;10410019;28;20203;-80
2022/07/28 04:35:45;;;;;;;3.55;1.52;;;15.40;99.90;;;;;;10382518;28;20396;-79
2022/07/28 04:41:07;;;;;;;5.15;1.80;;;15.40;99.90;;;;;;10409891;28;20292;-80
2022/07/28 04:46:28;;;;;;;5.35;1.48;;;15.40;99.90;;;;;;10435000;28;20326;-80
2022/07/28 04:51:51;;;;;;;5.03;1.75;;;15.40;99.90;;;;;;10391869;28;20281;-79
2022/07/28 04:57:12;;;;;;;7.85;2.28;;;15.40;99.90;;;;;;10441576;28;20202;-82
2022/07/28 05:02:34;;;;;;;6.07;2.05;;;15.40;99.90;;;;;;10478380;28;20229;-82
2022/07/28 05:07:56;;;;;;;5.97;2.22;;;15.40;99.90;;;;;;10449202;28;20202;-80
2022/07/28 05:13:17;;;;;;;7.80;1.90;;;15.40;99.90;;;;;;10436451;28;20443;-80
2022/07/28 05:18:38;;;;;;;5.13;1.70;;;15.40;99.90;;;;;;10430886;28;20248;-79
2022/07/28 05:23:59;;;;;;;6.13;2.08;;;15.40;99.90;;;;;;10401607;28;20220;-81
2022/07/28 05:29:21;;;;;;;7.82;2.22;;;15.60;99.90;;;;;;10408171;28;20518;-81
2022/07/28 05:34:42;;;;;;;9.18;2.70;;;15.70;99.90;;;;;;10408025;28;20198;-80
2022/07/28 05:40:09;;;;;;;13.40;2.90;;;15.80;94.70;;;;;;10434870;28;20194;-80
2022/07/28 05:45:49;;;;;;;8.57;2.20;;;16.00;90.20;;;;;;10434844;28;20212;-81
2022/07/28 05:51:10;;;;;;;9.02;1.80;;;16.30;48.70;;;;;;10434988;28;20270;-82
2022/07/28 05:56:31;;;;;;;6.53;1.70;;;16.60;31.60;;;;;;10466169;28;20283;-81
2022/07/28 06:01:53;;;;;;;6.00;1.45;;;16.80;1.00;;;;;;10476388;28;20246;-81
2022/07/28 06:07:14;;;;;;;6.18;1.63;;;17.00;1.00;;;;;;10439171;28;20198;-81
2022/07/28 06:12:46;;;;;;;6.68;1.70;;;17.20;1.00;;;;;;10458746;28;20238;-82
2022/07/28 06:18:07;;;;;;;6.40;1.33;;;17.20;1.00;;;;;;10439455;28;20225;-81
2022/07/28 06:23:29;;;;;;;7.35;1.70;;;17.30;1.00;;;;;;10442074;28;20288;-81
2022/07/28 06:28:51;;;;;;;6.35;1.67;;;17.70;1.00;;;;;;10431397;28;20219;-81
2022/07/28 06:34:12;;;;;;;5.75;1.58;;;17.90;1.00;;;;;;10402171;28;20200;-81
2022/07/28 06:39:34;;;;;;;9.35;2.00;;;18.40;1.00;;;;;;10403017;28;20206;-82
2022/07/28 06:44:55;;;;;;;7.57;1.73;;;19.00;1.00;;;;;;10411597;28;20454;-81
2022/07/28 06:50:20;;;;;;;7.75;2.10;;;19.70;1.00;;;;;;10441117;28;20196;-80
2022/07/28 06:55:41;;;;;;;6.55;1.70;;;19.70;99.90;;;;;;10453964;28;20206;-79
2022/07/28 07:01:06;;;;;;;6.85;2.22;;;19.30;1.00;;;;;;10467682;28;20227;-79
2022/07/28 07:06:27;;;;;;;3.42;1.20;;;19.20;99.90;;;;;;10457609;28;20468;-82
2022/07/28 07:11:49;;;;;;;3.33;1.33;;;20.10;99.90;;;;;;10439877;28;20236;-80
2022/07/28 07:17:10;;;;;;;3.88;1.40;;;20.20;99.90;;;;;;10466229;28;20196;-78
2022/07/28 07:22:32;;;;;;;5.40;1.90;;;;;;;;;;10440948;28;20224;-80
2022/07/28 07:27:54;;;;;;;3.45;1.10;;;21.10;99.90;;;;;;10430823;28;20250;-81
2022/07/28 07:33:15;;;;;;;6.20;1.63;;;20.90;1.00;;;;;;10481905;28;20219;-88
2022/07/28 07:38:38;;;;;;;2.60;1.35;;;21.00;1.00;;;;;;10471819;28;20522;-90
2022/07/28 07:43:59;;;;;;;6.03;1.40;;;21.60;99.90;;;;;;10463864;28;20223;-83
2022/07/28 07:49:20;;;;;;;4.95;1.70;;;22.50;51.90;;;;;;10478312;28;20425;-81
2022/07/28 07:54:42;;;;;;;4.47;1.80;;;22.10;99.90;;;;;;10474735;28;20188;-83
2022/07/28 08:00:04;;;;;;;4.60;1.15;;;21.30;99.90;;;;;;10460060;28;20391;-82
2022/07/28 08:05:26;;;;;;;9.05;1.52;;;21.60;76.00;;;;;;10460749;28;20199;-81
2022/07/28 08:10:49;;;;;;;12.40;3.80;;;21.90;99.90;;;;;;10459893;28;20191;-82
2022/07/28 08:16:10;;;;;;;9.52;2.15;;;21.20;1.00;;;;;;10473116;28;20416;-82
2022/07/28 08:21:32;;;;;;;4.75;1.40;;;21.90;1.00;;;;;;10473374;28;20226;-83
2022/07/28 08:26:53;;;;;;;7.97;1.50;;;23.50;44.10;;;;;;10419174;28;20196;-82
2022/07/28 08:32:14;;;;;;;7.85;1.50;;;23.60;99.90;;;;;;10470307;28;20215;-82
2022/07/28 08:37:39;;;;;;;3.80;1.40;;;22.80;1.00;;;;;;10458571;28;20211;-81
2022/07/28 08:43:37;;;;;;;6.35;1.45;;;22.00;99.90;;;;;;10458836;28;20220;-86
2022/07/28 08:48:58;;;;;;;5.88;1.48;;;22.80;99.90;;;;;;10458992;28;20230;-80
2022/07/28 08:54:25;;;;;;;3.92;1.10;;;22.80;1.00;;;;;;10472428;28;20187;-80
2022/07/28 08:59:48;;;;;;;4.78;1.50;;;22.50;1.00;;;;;;10430935;28;20208;-83
2022/07/28 09:05:11;;;;;;;4.63;1.77;;;22.30;99.90;;;;;;10418689;28;20298;-80
2022/07/28 09:10:32;;;;;;;6.75;1.27;;;22.10;1.00;;;;;;10433727;28;20196;-82
2022/07/28 09:15:54;;;;;;;7.65;1.95;;;21.60;1.00;;;;;;10468735;28;20314;-80
2022/07/28 09:21:15;;;;;;;1.30;0.73;;;21.20;99.90;;;;;;10472694;28;20239;-81
2022/07/28 09:26:37;;;;;;;3.70;1.20;;;20.90;1.00;;;;;;10473067;28;20245;-78
2022/07/28 09:31:58;;;;;;;4.97;1.00;;;21.10;99.90;;;;;;10433282;28;20220;-76
2022/07/28 09:37:25;;;;;;;2.47;1.02;;;23.00;1.00;;;;;;10429707;28;20208;-86
2022/07/28 09:42:54;;;;;;;4.40;1.60;;;23.90;1.00;;;;;;10443726;28;20236;-80
2022/07/28 09:48:15;;;;;;;4.00;1.20;;;23.50;1.00;;;;;;10466922;28;20250;-81
2022/07/28 09:53:37;;;;;;;6.78;1.77;;;23.30;1.00;;;;;;10439918;28;20253;-81
2022/07/28 09:58:59;;;;;;;6.53;1.20;;;23.00;99.90;;;;;;10494865;28;20513;-79
2022/07/28 10:04:38;;;;;;;4.55;1.60;;;22.40;1.00;;;;;;10494969;28;20262;-83
2022/07/28 10:10:02;;;;;;;3.92;0.93;;;22.10;1.00;;;;;;10445905;28;20545;-85
2022/07/28 10:21:25;;;;;;;4.97;1.55;;;21.30;99.90;;;;;;10466348;28;20299;-80
2022/07/28 10:26:47;;;;;;;13.88;1.88;;;21.10;99.90;;;;;;10411704;28;20220;-80
2022/07/28 10:32:08;;;;;;;6.60;1.80;;;21.20;1.00;;;;;;10479753;28;20239;-80
2022/07/28 10:37:36;;;;;;;3.35;1.35;;;22.30;99.90;;;;;;10494511;28;20230;-81
2022/07/28 10:42:59;;;;;;;3.30;1.40;;;22.70;1.00;;;;;;10436170;28;20227;-83
2022/07/28 10:48:20;;;;;;;3.47;1.30;;;22.90;1.00;;;;;;10428948;28;20277;-81
2022/07/28 10:53:47;;;;;;;3.63;1.10;;;22.90;1.00;;;;;;10474490;28;20208;-81
2022/07/28 10:59:28;;;;;;;7.70;1.48;;;22.60;99.90;;;;;;10518407;28;20199;-82
2022/07/28 11:04:51;;;;;;;5.60;1.50;;;23.00;1.00;;;;;;10489797;28;20234;-83
2022/07/28 11:10:18;;;;;;;6.28;1.52;;;22.70;99.90;;;;;;10504643;28;20417;-82
2022/07/28 11:15:39;;;;;;;5.72;1.38;;;22.10;28.70;;;;;;10468231;28;20254;-80
2022/07/28 11:21:03;;;;;;;3.83;1.10;;;22.10;1.00;;;;;;10476782;28;20231;-80
2022/07/28 11:26:26;;;;;;;5.10;3.10;;;22.80;1.00;;;;;;10476204;28;20458;-81
2022/07/28 11:31:47;;;;;;;4.78;1.70;;;23.10;99.90;;;;;;10471109;28;20502;-83
2022/07/28 11:37:09;;;;;;;6.00;1.52;;;24.00;1.00;;;;;;10461189;28;20397;-80
2022/07/28 11:42:31;;;;;;;8.93;1.67;;;24.70;1.00;;;;;;10491788;28;20314;-84
2022/07/28 11:48:21;;;;;;;3.13;1.08;;;25.40;99.90;;;;;;10491516;28;20211;-80
2022/07/28 11:53:54;;;;;;;4.45;1.20;;;24.80;1.00;;;;;;10491117;28;20220;-83
2022/07/28 11:59:16;;;;;;;6.03;1.40;;;23.80;99.90;;;;;;10455817;28;20279;-79
2022/07/28 12:04:38;;;;;;;2.13;1.08;;;23.40;1.00;;;;;;10473965;28;20294;-79
2022/07/28 12:10:00;;;;;;;3.65;1.35;;;24.30;1.00;;;;;;10474718;28;20241;-84
2022/07/28 12:15:21;;;;;;;4.05;1.50;;;24.30;99.90;;;;;;10474030;28;20247;-79
2022/07/28 12:20:44;;;;;;;2.72;1.17;;;24.40;1.00;;;;;;10459877;28;20371;-79
2022/07/28 12:26:05;;;;;;;11.20;1.45;;;24.80;1.00;;;;;;10487149;28;20207;-81
2022/07/28 12:31:36;;;;;;;6.25;1.52;;;24.70;1.00;;;;;;10461062;28;20204;-81
2022/07/28 12:37:03;;;;;;;3.20;1.08;;;24.90;99.90;;;;;;10473436;28;20207;-81
2022/07/28 12:42:31;;;;;;;3.47;1.30;;;25.10;99.90;;;;;;10472409;28;20541;-80
2022/07/28 12:47:53;;;;;;;4.65;1.75;;;25.40;18.40;;;;;;10457993;28;20188;-81
2022/07/28 12:53:21;;;;;;;2.53;1.15;;;25.20;1.00;;;;;;10502156;28;20191;-80
2022/07/28 12:58:43;;;;;;;2.90;1.20;;;24.60;1.00;;;;;;10508920;28;20191;-82
2022/07/28 13:04:04;;;;;;;4.10;1.40;;;24.60;29.60;;;;;;10500687;28;20266;-81
2022/07/28 13:09:26;;;;;;;4.43;1.42;;;24.90;1.00;;;;;;10457593;28;20202;-84
2022/07/28 13:14:52;;;;;;;4.90;1.75;;;25.20;1.00;;;;;;10457478;28;20235;-86
2022/07/28 13:20:13;;;;;;;5.72;1.42;;;24.60;1.00;;;;;;10471494;28;20275;-78
2022/07/28 13:25:36;;;;;;;2.35;1.30;;;24.00;1.00;;;;;;10472793;28;20277;-78
2022/07/28 13:30:58;;;;;;;3.83;1.90;;;23.60;38.90;;;;;;10440253;28;20234;-86
2022/07/28 13:36:19;;;;;;;4.63;1.95;;;23.50;99.90;;;;;;10513802;28;20275;-83
2022/07/28 13:41:40;;;;;;;3.35;1.20;;;23.30;99.90;;;;;;10490546;28;20246;-82
2022/07/28 13:47:04;;;;;;;1.75;0.90;;;23.10;99.90;;;;;;10471640;28;20424;-88
2022/07/28 13:52:25;;;;;;;3.88;1.13;;;22.90;1.00;;;;;;10450088;28;20405;-86
2022/07/28 13:57:49;;;;;;;4.88;1.30;;;22.70;78.70;;;;;;10485523;28;20518;-84
2022/07/28 14:03:11;;;;;;;7.75;1.15;;;22.60;99.90;;;;;;10472416;28;20231;-86
2022/07/28 14:08:32;;;;;;;3.45;1.52;;;22.60;99.90;;;;;;10471195;28;20203;-82
2022/07/28 14:13:54;;;;;;;6.07;2.40;;;23.10;99.90;;;;;;10489773;28;20501;-87
2022/07/28 14:19:16;;;;;;;12.63;1.65;;;22.80;1.00;;;;;;10463929;28;20417;-87
2022/07/28 14:24:37;;;;;;;4.75;1.10;;;22.60;1.00;;;;;;10459867;28;20242;-81
2022/07/28 14:29:59;;;;;;;3.97;1.85;;;22.50;1.00;;;;;;10486757;28;20273;-79
2022/07/28 14:35:21;;;;;;;3.30;1.10;;;22.60;1.00;;;;;;10479715;28;20266;-81
2022/07/28 14:40:42;;;;;;;2.28;0.80;;;22.90;1.00;;;;;;10485895;28;20522;-84
2022/07/28 14:46:03;;;;;;;6.68;1.85;;;23.00;1.00;;;;;;10441462;28;20224;-83
2022/07/28 14:51:25;;;;;;;5.82;1.92;;;23.30;99.90;;;;;;10463929;28;20257;-84
2022/07/28 14:56:46;;;;;;;5.38;1.95;;;23.40;99.90;;;;;;10487825;28;20447;-86
2022/07/28 15:02:08;;;;;;;6.90;1.88;;;23.50;13.90;;;;;;10449399;28;20248;-82
2022/07/28 15:07:30;;;;;;;4.05;1.10;;;23.50;1.00;;;;;;10453906;28;20278;-87
2022/07/28 15:12:51;;;;;;;2.47;1.25;;;23.50;1.00;;;;;;10479367;28;20248;-88
2022/07/28 15:18:13;;;;;;;4.50;2.08;;;23.40;1.00;;;;;;10468168;28;20474;-88
2022/07/28 15:23:34;;;;;;;2.90;1.08;;;23.10;42.90;;;;;;10480661;28;20247;-87
2022/07/28 15:28:55;;;;;;;3.72;1.45;;;22.90;99.90;;;;;;10463650;28;20211;-82
2022/07/28 15:34:17;;;;;;;3.67;1.48;;;22.90;99.90;;;;;;10422949;28;20511;-86
2022/07/28 15:39:38;;;;;;;5.55;1.60;;;22.70;1.00;;;;;;10425664;28;20197;-79
2022/07/28 15:45:18;;;;;;;4.03;1.40;;;22.50;1.00;;;;;;10440506;28;20229;-84
2022/07/28 15:50:44;;;;;;;3.08;1.60;;;22.50;1.00;;;;;;10482095;28;20188;-88
2022/07/28 15:56:05;;;;;;;7.55;2.03;;;22.40;1.00;;;;;;10493442;28;20205;-82
2022/07/28 16:01:28;;;;;;;2.38;1.40;;;22.50;1.00;;;;;;10526481;28;20214;-87
2022/07/28 16:12:29;;;;;;;1.77;0.88;;;22.40;1.00;;;;;;10496452;28;20398;-80
2022/07/28 16:17:50;;;;;;;3.55;1.17;;;22.40;1.00;;;;;;10479963;28;20230;-80
2022/07/28 16:23:12;;;;;;;4.75;1.48;;;22.40;1.00;;;;;;10479803;28;20219;-80
2022/07/28 16:28:33;;;;;;;6.82;1.75;;;22.10;1.00;;;;;;10479438;28;20187;-81
2022/07/28 16:33:55;;;;;;;4.05;1.20;;;22.00;1.00;;;;;;10466413;28;20389;-80
2022/07/28 16:39:17;;;;;;;7.28;2.03;;;21.90;1.00;;;;;;10480497;28;20194;-79
2022/07/28 16:44:41;;;;;;;4.35;1.77;;;21.70;99.90;;;;;;10495553;28;20593;-79
2022/07/28 16:50:02;;;;;;;2.95;1.42;;;21.50;99.90;;;;;;10495315;28;20226;-86
2022/07/28 16:55:24;;;;;;;4.63;1.20;;;21.40;1.00;;;;;;10486932;28;20199;-81
2022/07/28 17:00:45;;;;;;;1.33;1.20;;;21.40;1.00;;;;;;10529850;28;20192;-82
2022/07/28 17:06:07;;;;;;;4.00;1.23;;;21.30;99.50;;;;;;10491688;28;20243;-83
2022/07/28 17:11:29;;;;;;;2.67;1.38;;;21.30;99.90;;;;;;10491950;28;20267;-86
2022/07/28 17:16:50;;;;;;;5.28;1.23;;;21.20;99.90;;;;;;10476842;28;20222;-79
2022/07/28 17:22:12;;;;;;;7.03;1.67;;;21.10;1.00;;;;;;10477338;28;20223;-79
2022/07/28 17:27:35;;;;;;;3.97;1.33;;;20.90;99.90;;;;;;10463133;28;20200;-79
2022/07/28 17:32:59;;;;;;;7.75;1.65;;;20.70;1.00;;;;;;10476913;28;20203;-81
2022/07/28 17:38:24;;;;;;;4.25;1.65;;;20.50;1.00;;;;;;10477201;28;20214;-84
2022/07/28 17:43:46;;;;;;;4.97;1.52;;;20.30;1.00;;;;;;10493764;28;20242;-86
2022/07/28 17:49:08;;;;;;;4.70;1.80;;;20.00;25.20;;;;;;10493205;28;20214;-89
2022/07/28 17:55:32;;;;;;;4.63;2.13;;;19.80;99.90;;;;;;10477181;28;20223;-84
2022/07/28 18:00:11;;;;;;;4.60;1.92;;;19.70;1.00;;;;;;10521682;28;20190;-83
2022/07/28 18:05:32;;;;;;;4.70;2.10;;;19.70;1.00;;;;;;10470501;28;20457;-86
2022/07/28 18:10:53;;;;;;;4.65;1.90;;;19.70;1.00;;;;;;10457744;28;20188;-83
2022/07/28 18:16:15;;;;;;;5.15;2.35;;;19.60;1.00;;;;;;10514150;28;20235;-88
2022/07/28 18:21:36;;;;;;;4.15;2.20;;;19.50;1.00;;;;;;10470480;28;20211;-84
2022/07/28 18:26:58;;;;;;;3.58;1.65;;;19.40;1.00;;;;;;10470276;28;20192;-81
2022/07/28 18:32:19;;;;;;;5.03;1.90;;;19.30;23.60;;;;;;10483790;28;20196;-82
2022/07/28 18:37:42;;;;;;;3.28;1.50;;;19.30;99.90;;;;;;10500492;28;20199;-80
2022/07/28 18:43:05;;;;;;;5.65;2.28;;;19.20;99.90;;;;;;10484345;28;20294;-81
2022/07/28 18:48:29;;;;;;;5.53;2.53;;;19.20;99.90;;;;;;10469564;28;20188;-83
2022/07/28 18:53:51;;;;;;;5.05;2.75;;;19.10;99.90;;;;;;10482970;28;20203;-80
2022/07/28 18:59:12;;;;;;;8.77;2.80;;;19.10;99.90;;;;;;10520762;28;20190;-81
2022/07/28 19:04:33;;;;;;;6.65;3.17;;;19.00;99.90;;;;;;10439469;28;20254;-82
2022/07/28 19:09:54;;;;;;;4.93;2.70;;;18.90;99.90;;;;;;10454682;28;20407;-85
2022/07/28 19:15:16;;;;;;;4.57;2.10;;;18.80;99.90;;;;;;10466603;28;20236;-85
2022/07/28 19:20:38;;;;;;;4.82;2.67;;;18.80;99.90;;;;;;10441973;28;20188;-81
2022/07/28 19:26:01;;;;;;;3.97;2.63;;;18.80;1.00;;;;;;10440443;28;20224;-83
2022/07/28 19:31:22;;;;;;;4.95;2.80;;;18.70;1.00;;;;;;10447904;28;20203;-80
2022/07/28 19:36:45;;;;;;;4.90;2.95;;;18.70;1.00;;;;;;10482224;28;20187;-85
2022/07/28 19:42:08;;;;;;;4.45;2.38;;;18.70;1.00;;;;;;10467084;28;20453;-87
2022/07/28 19:47:29;;;;;;;3.85;2.03;;;18.50;1.00;;;;;;10482366;28;20194;-85
2022/07/28 19:52:50;;;;;;;5.32;2.20;;;18.50;1.00;;;;;;10481837;28;20215;-87
2022/07/28 19:58:12;;;;;;;4.57;2.67;;;18.50;1.00;;;;;;10497579;28;20200;-85
2022/07/28 20:03:33;;;;;;;3.42;2.00;;;18.40;1.00;;;;;;10487641;28;20254;-86
2022/07/28 20:08:55;;;;;;;7.43;2.80;;;18.40;1.00;;;;;;10480786;28;20203;-85
2022/07/28 20:14:17;;;;;;;4.82;2.50;;;18.30;1.00;;;;;;10493806;28;20227;-86
2022/07/28 20:19:38;;;;;;;4.35;2.33;;;18.30;1.00;;;;;;10465880;28;20236;-84
2022/07/28 20:24:59;;;;;;;6.72;2.72;;;18.10;1.00;;;;;;10478830;28;20227;-80
2022/07/28 20:30:21;;;;;;;4.80;2.55;;;17.90;1.00;;;;;;10480004;28;20199;-83
2022/07/28 20:35:42;;;;;;;4.60;2.10;;;17.90;1.00;;;;;;10464771;28;20191;-81
2022/07/28 20:41:06;;;;;;;7.40;2.80;;;17.90;1.00;;;;;;10464802;28;20509;-80
2022/07/28 20:46:27;;;;;;;4.72;2.47;;;17.80;1.00;;;;;;10478279;28;20227;-80
2022/07/28 20:51:48;;;;;;;4.05;2.38;;;17.70;1.00;;;;;;10464321;28;20203;-80
2022/07/28 20:57:10;;;;;;;4.38;2.38;;;17.60;1.00;;;;;;10455075;28;20436;-88
2022/07/28 21:02:31;;;;;;;3.35;2.10;;;17.50;1.00;;;;;;10459708;28;20302;-80
2022/07/28 21:07:53;;;;;;;4.78;2.60;;;17.30;1.00;;;;;;10476450;28;20225;-84
2022/07/28 21:13:14;;;;;;;5.13;2.20;;;17.30;1.00;;;;;;10491938;28;20227;-86
2022/07/28 21:18:35;;;;;;;3.90;2.30;;;17.30;1.00;;;;;;10470034;28;20200;-85
2022/07/28 21:23:57;;;;;;;5.45;2.35;;;17.20;1.00;;;;;;10436428;28;20231;-88
2022/07/28 21:29:18;;;;;;;4.97;2.60;;;17.10;1.00;;;;;;10441584;28;20200;-88
2022/07/28 21:34:38;;;;;;;7.05;2.63;;;17.00;1.00;;;;;;10463030;28;20179;-87
2022/07/28 21:40:01;;;;;;;4.28;2.10;;;17.00;1.00;;;;;;10478356;28;20191;-87
2022/07/28 21:45:22;;;;;;;4.25;2.40;;;16.90;1.00;;;;;;10491434;28;20235;-84
2022/07/28 21:50:45;;;;;;;4.30;2.75;;;16.90;1.00;;;;;;10477216;28;20191;-85
2022/07/28 21:56:07;;;;;;;2.90;2.30;;;16.80;1.00;;;;;;10476162;28;20207;-82
2022/07/28 22:01:28;;;;;;;6.65;2.47;;;16.70;1.00;;;;;;10444548;28;20188;-81
2022/07/28 22:06:49;;;;;;;4.00;2.38;;;16.60;1.00;;;;;;10476788;28;20449;-84
2022/07/28 22:12:11;;;;;;;5.43;2.33;;;16.60;1.00;;;;;;10477600;28;20238;-85
2022/07/28 22:17:32;;;;;;;5.97;2.03;;;16.50;1.00;;;;;;10477083;28;20205;-87
2022/07/28 22:22:53;;;;;;;3.53;1.90;;;16.50;1.00;;;;;;10462364;28;20481;-87
2022/07/28 22:28:15;;;;;;;4.18;2.33;;;16.40;1.00;;;;;;10477736;28;20499;-87
2022/07/28 22:33:37;;;;;;;4.40;2.50;;;16.40;1.00;;;;;;10457444;28;20477;-88
2022/07/28 22:38:59;;;;;;;6.07;2.92;;;16.30;1.00;;;;;;10435454;28;20200;-88
2022/07/28 22:44:20;;;;;;;8.57;3.45;;;16.20;1.00;;;;;;10437216;28;20242;-83
2022/07/28 22:49:42;;;;;;;6.57;2.90;;;16.20;1.00;;;;;;10442922;28;20226;-87
2022/07/28 22:55:04;;;;;;;5.25;3.05;;;16.10;4.50;;;;;;10459271;28;20496;-87
2022/07/28 23:00:26;;;;;;;7.50;3.00;;;15.90;7.30;;;;;;10473981;28;20200;-88
2022/07/28 23:05:47;;;;;;;6.13;3.08;;;15.90;1.00;;;;;;10468250;28;20554;-83
2022/07/28 23:11:08;;;;;;;6.35;3.35;;;15.90;1.00;;;;;;10483125;28;20193;-86
2022/07/28 23:16:30;;;;;;;4.38;2.65;;;15.70;1.00;;;;;;10483456;28;20277;-80
2022/07/28 23:21:51;;;;;;;5.53;2.67;;;15.80;3.70;;;;;;10481744;28;20208;-86
2022/07/28 23:27:12;;;;;;;5.38;2.65;;;15.70;9.10;;;;;;10468172;28;20217;-81
2022/07/28 23:32:34;;;;;;;8.35;2.95;;;15.60;2.70;;;;;;10465357;28;20214;-85
2022/07/28 23:37:55;;;;;;;5.55;2.20;;;15.60;1.00;;;;;;10481933;28;20195;-80
2022/07/28 23:43:16;;;;;;;6.22;2.40;;;15.50;4.80;;;;;;10482627;28;20217;-80
2022/07/28 23:48:38;;;;;;;3.80;1.90;;;15.50;3.90;;;;;;10481386;28;20209;-80
2022/07/28 23:54:15;;;;;;;6.97;3.75;;;15.40;8.70;;;;;;10480441;28;20201;-80
2022/07/28 23:59:38;;;;;;;4.78;2.60;;;15.40;1.10;;;;;;10452086;28;20208;-85
